Time;durP1;ratioP1;P1;durP2;ratioP2;P2;SDS_P1;SDS_P2;PMS_P1;PMS_P2;Temp;Humidity;BMP_temperature;BMP_pressure;BME280_temperature;BME280_humidity;BME280_pressure;Samples;Min_cycle;Max_cycle;Signal;HPM_P1;HPM_P2
2024/04/18 00:00:34;;;;;;;7.80;4.88;;;;;;;;;;5391738;26;20040;-63
2024/04/18 00:03:00;;;;;;;8.10;4.75;;;;;;;;;;5417136;26;20028;-65
2024/04/18 00:05:32;;;;;;;8.70;5.10;;;;;;;;;;5416750;26;20028;-65
2024/04/18 00:07:58;;;;;;;7.20;4.60;;;;;;;;;;5411712;26;20043;-65
2024/04/18 00:10:25;;;;;;;8.23;4.72;;;;;;;;;;5412529;26;20087;-65
2024/04/18 00:12:51;;;;;;;7.68;4.68;;;;;;;;;;5416022;26;20039;-66
2024/04/18 00:15:24;;;;;;;7.53;4.57;;;;;;;;;;5414608;26;20043;-65
2024/04/18 00:17:58;;;;;;;8.65;5.25;;;;;;;;;;5417190;26;20389;-65
2024/04/18 00:20:24;;;;;;;7.82;4.50;;;;;;;;;;5408047;26;20074;-65
2024/04/18 00:22:52;;;;;;;9.02;4.45;;;;;;;;;;5388169;26;20030;-66
2024/04/18 00:25:31;;;;;;;7.55;4.03;;;;;;;;;;5387791;26;20778;-65
2024/04/18 00:27:57;;;;;;;8.10;4.45;;;;;;;;;;5414164;26;20996;-65
2024/04/18 00:30:39;;;;;;;6.63;3.40;;;;;;;;;;5429690;26;20026;-65
2024/04/18 00:33:05;;;;;;;8.57;3.75;;;;;;;;;;5407844;26;20512;-65
2024/04/18 00:35:38;;;;;;;6.57;2.72;;;;;;;;;;5424082;26;20046;-64
2024/04/18 00:38:14;;;;;;;5.07;3.10;;;;;;;;;;5421495;26;20039;-64
2024/04/18 00:40:41;;;;;;;3.60;2.50;;;;;;;;;;5419015;26;20391;-65
2024/04/18 00:43:19;;;;;;;3.88;2.33;;;;;;;;;;5417775;26;20043;-65
2024/04/18 00:45:51;;;;;;;4.28;2.58;;;;;;;;;;5425784;26;20019;-64
2024/04/18 00:48:21;;;;;;;4.50;2.70;;;;;;;;;;5416671;26;20027;-66
2024/04/18 00:50:50;;;;;;;4.25;2.40;;;;;;;;;;5420853;26;20050;-65
2024/04/18 00:53:19;;;;;;;5.70;2.70;;;;;;;;;;5416959;26;20039;-65
2024/04/18 00:55:50;;;;;;;4.63;2.72;;;;;;;;;;5419089;26;20027;-65
2024/04/18 00:58:16;;;;;;;5.40;2.45;;;;;;;;;;5418564;26;20542;-65
2024/04/18 01:00:45;;;;;;;5.28;2.85;;;;;;;;;;5417245;26;20042;-65
2024/04/18 01:03:30;;;;;;;4.65;2.83;;;;;;;;;;5406979;26;19999;-65
2024/04/18 01:06:09;;;;;;;7.97;3.13;;;;;;;;;;5406148;26;20045;-66
2024/04/18 01:08:54;;;;;;;5.65;3.15;;;;;;;;;;5408138;26;20115;-65
2024/04/18 01:11:31;;;;;;;4.38;3.05;;;;;;;;;;5411985;26;20027;-65
2024/04/18 01:14:05;;;;;;;4.75;3.15;;;;;;;;;;5415342;26;20035;-66
2024/04/18 01:16:51;;;;;;;4.30;2.78;;;;;;;;;;5417825;26;20058;-65
2024/04/18 01:19:19;;;;;;;6.00;3.45;;;;;;;;;;5415518;26;20039;-65
2024/04/18 01:21:48;;;;;;;5.93;3.10;;;;;;;;;;5418493;26;21249;-67
2024/04/18 01:24:14;;;;;;;4.50;2.75;;;;;;;;;;5415721;26;20386;-65
2024/04/18 01:26:41;;;;;;;4.75;2.40;;;;;;;;;;5411061;26;20031;-67
2024/04/18 01:29:07;;;;;;;4.75;2.30;;;;;;;;;;5412679;26;20384;-66
2024/04/18 01:31:33;;;;;;;3.97;2.45;;;;;;;;;;5388389;26;20486;-65
2024/04/18 01:33:59;;;;;;;3.75;2.55;;;;;;;;;;5410222;26;20378;-67
2024/04/18 01:36:25;;;;;;;4.63;2.75;;;;;;;;;;5390354;26;20039;-67
2024/04/18 01:38:52;;;;;;;3.22;2.00;;;;;;;;;;5390455;26;20027;-66
2024/04/18 01:41:30;;;;;;;4.35;2.80;;;;;;;;;;5404299;26;20043;-67
2024/04/18 01:43:59;;;;;;;;;;;;;;;;;;5436689;26;20104;-66
2024/04/18 01:46:48;;;;;;;4.70;2.83;;;;;;;;;;5350501;26;19953;-66
2024/04/18 01:49:32;;;;;;;4.60;2.42;;;;;;;;;;5437328;26;21095;-65
2024/04/18 01:51:58;;;;;;;6.18;2.65;;;;;;;;;;5416755;26;20043;-65
2024/04/18 01:54:30;;;;;;;2.78;1.95;;;;;;;;;;5419322;26;20414;-66
2024/04/18 01:56:56;;;;;;;4.40;2.03;;;;;;;;;;5418528;26;20059;-67
2024/04/18 01:59:22;;;;;;;3.03;1.98;;;;;;;;;;5415834;26;20047;-67
2024/04/18 02:01:50;;;;;;;3.42;2.13;;;;;;;;;;5386816;26;20382;-66
2024/04/18 02:04:19;;;;;;;1.98;1.42;;;;;;;;;;5418066;26;20507;-65
2024/04/18 02:06:48;;;;;;;2.63;1.73;;;;;;;;;;5414460;26;20038;-67
2024/04/18 02:09:23;;;;;;;2.88;1.63;;;;;;;;;;5421846;26;20083;-66
2024/04/18 02:11:49;;;;;;;2.75;1.58;;;;;;;;;;5395884;26;20043;-66
2024/04/18 02:14:36;;;;;;;1.98;1.38;;;;;;;;;;5417787;26;20499;-65
2024/04/18 02:17:03;;;;;;;2.10;1.40;;;;;;;;;;5412859;26;20024;-66
2024/04/18 02:19:29;;;;;;;2.63;1.50;;;;;;;;;;5417536;26;20102;-66
2024/04/18 02:22:14;;;;;;;1.95;1.38;;;;;;;;;;5413034;26;20027;-65
2024/04/18 02:25:05;;;;;;;4.78;1.88;;;;;;;;;;5392816;26;20047;-64
2024/04/18 02:27:31;;;;;;;2.20;1.40;;;;;;;;;;5416707;26;20028;-66
2024/04/18 02:30:17;;;;;;;3.03;1.40;;;;;;;;;;5429962;26;20361;-65
2024/04/18 02:32:44;;;;;;;2.50;1.70;;;;;;;;;;5394382;26;20063;-66
2024/04/18 02:35:16;;;;;;;3.08;1.63;;;;;;;;;;5416477;26;20027;-65
2024/04/18 02:38:14;;;;;;;1.60;1.10;;;;;;;;;;5341837;26;20639;-65
2024/04/18 02:40:40;;;;;;;2.13;1.23;;;;;;;;;;5414986;26;20023;-66
2024/04/18 02:43:09;;;;;;;2.47;1.35;;;;;;;;;;5413923;26;20047;-64
2024/04/18 02:45:35;;;;;;;1.90;1.40;;;;;;;;;;5415406;26;20035;-66
2024/04/18 02:48:20;;;;;;;2.08;1.40;;;;;;;;;;5410837;26;20037;-66
2024/04/18 02:50:46;;;;;;;2.55;1.45;;;;;;;;;;5415152;26;20034;-67
2024/04/18 02:53:12;;;;;;;2.40;1.63;;;;;;;;;;5418753;26;20039;-67
2024/04/18 02:55:58;;;;;;;3.90;1.80;;;;;;;;;;5402070;26;20106;-66
2024/04/18 02:58:31;;;;;;;2.97;1.77;;;;;;;;;;5424667;26;20036;-67
2024/04/18 03:01:15;;;;;;;2.78;1.80;;;;;;;;;;5413031;26;20043;-67
2024/04/18 03:03:41;;;;;;;1.95;1.30;;;;;;;;;;5418624;26;20036;-67
2024/04/18 03:06:07;;;;;;;2.83;1.83;;;;;;;;;;5417190;26;20031;-66
2024/04/18 03:08:33;;;;;;;3.40;2.08;;;;;;;;;;5413212;26;20031;-64
2024/04/18 03:11:17;;;;;;;2.67;1.50;;;;;;;;;;5418056;26;20036;-65
2024/04/18 03:14:03;;;;;;;2.42;1.60;;;;;;;;;;5420629;26;20503;-66
2024/04/18 03:16:29;;;;;;;2.83;1.75;;;;;;;;;;5427100;26;20035;-66
2024/04/18 03:19:15;;;;;;;3.10;1.92;;;;;;;;;;5416119;26;20483;-66
2024/04/18 03:21:54;;;;;;;3.75;1.75;;;;;;;;;;5413757;26;21044;-66
2024/04/18 03:24:23;;;;;;;4.07;2.15;;;;;;;;;;5417356;26;20027;-65
2024/04/18 03:26:50;;;;;;;3.03;1.98;;;;;;;;;;5421432;26;20502;-66
2024/04/18 03:29:17;;;;;;;2.83;1.73;;;;;;;;;;5415588;26;20060;-65
2024/04/18 03:31:58;;;;;;;4.10;1.95;;;;;;;;;;5415215;26;20024;-66
2024/04/18 03:34:43;;;;;;;4.03;2.35;;;;;;;;;;5422833;26;20026;-65
2024/04/18 03:37:09;;;;;;;2.65;1.60;;;;;;;;;;5415916;26;20111;-64
2024/04/18 03:39:35;;;;;;;2.75;1.63;;;;;;;;;;5417108;26;20416;-65
2024/04/18 03:42:01;;;;;;;4.18;2.10;;;;;;;;;;5417119;26;20039;-66
2024/04/18 03:44:47;;;;;;;3.60;2.28;;;;;;;;;;5412022;26;20039;-66
2024/04/18 03:47:13;;;;;;;3.65;2.22;;;;;;;;;;5385753;26;20550;-66
2024/04/18 03:49:59;;;;;;;6.60;2.65;;;;;;;;;;5407182;26;20031;-66
2024/04/18 03:52:39;;;;;;;3.85;2.50;;;;;;;;;;5417516;26;20495;-65
2024/04/18 03:55:26;;;;;;;3.90;2.53;;;;;;;;;;5417234;26;20051;-66
2024/04/18 03:57:52;;;;;;;5.53;2.90;;;;;;;;;;5387046;26;20037;-66
2024/04/18 04:00:37;;;;;;;3.70;2.20;;;;;;;;;;5411358;26;20028;-65
2024/04/18 04:03:05;;;;;;;5.60;2.95;;;;;;;;;;5415787;26;20032;-66
2024/04/18 04:05:31;;;;;;;5.70;2.65;;;;;;;;;;5410419;26;20387;-66
2024/04/18 04:08:00;;;;;;;4.05;2.65;;;;;;;;;;5409276;26;20031;-65
2024/04/18 04:10:41;;;;;;;3.70;2.58;;;;;;;;;;5407443;26;20032;-66
2024/04/18 04:13:08;;;;;;;6.95;2.80;;;;;;;;;;5422926;26;20507;-66
2024/04/18 04:15:48;;;;;;;4.43;2.75;;;;;;;;;;5408521;26;20605;-67
2024/04/18 04:18:33;;;;;;;4.25;2.88;;;;;;;;;;5413337;26;20032;-64
2024/04/18 04:21:18;;;;;;;5.47;3.13;;;;;;;;;;5406302;26;20051;-64
2024/04/18 04:23:45;;;;;;;5.38;3.10;;;;;;;;;;5387867;26;20004;-65
2024/04/18 04:26:11;;;;;;;5.25;3.10;;;;;;;;;;5406661;26;20388;-65
2024/04/18 04:28:37;;;;;;;4.40;3.20;;;;;;;;;;5396190;26;20020;-64
2024/04/18 04:31:03;;;;;;;5.43;3.08;;;;;;;;;;5406844;26;20032;-64
2024/04/18 04:33:32;;;;;;;5.43;3.45;;;;;;;;;;5404344;26;20394;-65
2024/04/18 04:35:58;;;;;;;5.18;3.47;;;;;;;;;;5411399;26;20044;-64
2024/04/18 04:38:24;;;;;;;6.85;3.50;;;;;;;;;;5416296;26;19999;-65
2024/04/18 04:40:51;;;;;;;5.13;3.10;;;;;;;;;;5409846;26;20028;-65
2024/04/18 04:43:17;;;;;;;5.90;3.35;;;;;;;;;;5417584;26;20027;-65
2024/04/18 04:45:43;;;;;;;5.82;3.58;;;;;;;;;;5409172;26;20028;-65
2024/04/18 04:48:09;;;;;;;6.90;3.90;;;;;;;;;;5387532;26;20043;-64
2024/04/18 04:50:59;;;;;;;5.70;3.50;;;;;;;;;;5412274;26;20076;-66
2024/04/18 04:53:31;;;;;;;5.90;3.67;;;;;;;;;;5411649;26;20036;-61
2024/04/18 04:56:01;;;;;;;7.78;4.85;;;;;;;;;;5415631;26;20050;-64
2024/04/18 04:58:27;;;;;;;7.25;4.38;;;;;;;;;;5418280;26;20415;-62
2024/04/18 05:00:54;;;;;;;7.05;3.60;;;;;;;;;;5420065;26;20038;-67
2024/04/18 05:03:36;;;;;;;4.38;3.00;;;;;;;;;;5417588;26;20029;-63
2024/04/18 05:06:22;;;;;;;5.65;3.65;;;;;;;;;;5418406;26;20035;-64
2024/04/18 05:09:08;;;;;;;8.50;3.95;;;;;;;;;;5410552;26;20429;-63
2024/04/18 05:11:34;;;;;;;6.85;3.60;;;;;;;;;;5419865;26;20052;-63
2024/04/18 05:14:00;;;;;;;7.50;3.65;;;;;;;;;;5413347;26;20031;-64
2024/04/18 05:16:45;;;;;;;8.80;4.75;;;;;;;;;;5428383;26;20026;-64
2024/04/18 05:19:11;;;;;;;7.05;4.22;;;;;;;;;;5413145;26;20004;-63
2024/04/18 05:21:37;;;;;;;5.75;3.65;;;;;;;;;;5417599;26;20051;-63
2024/04/18 05:24:22;;;;;;;7.72;3.90;;;;;;;;;;5383205;26;20818;-63
2024/04/18 05:26:48;;;;;;;6.63;4.07;;;;;;;;;;5427018;26;20031;-63
2024/04/18 05:31:59;;;;;;;6.13;4.05;;;;;;;;;;5418747;26;20031;-63
2024/04/18 05:34:28;;;;;;;8.45;4.35;;;;;;;;;;5413102;26;20090;-63
2024/04/18 05:36:54;;;;;;;6.68;3.33;;;;;;;;;;5415678;26;20057;-64
2024/04/18 05:39:20;;;;;;;7.38;4.25;;;;;;;;;;5415106;26;20503;-63
2024/04/18 05:41:47;;;;;;;6.05;3.50;;;;;;;;;;5386449;26;20027;-63
2024/04/18 05:44:41;;;;;;;5.07;2.95;;;;;;;;;;5419327;26;20047;-63
2024/04/18 05:47:07;;;;;;;6.13;3.85;;;;;;;;;;5460860;21;20345;-60
2024/04/18 05:49:34;;;;;;;6.05;3.47;;;;;;;;;;5434665;26;20035;-60
2024/04/18 05:52:00;;;;;;;6.07;3.65;;;;;;;;;;5435044;26;20038;-59
2024/04/18 05:54:30;;;;;;;5.32;3.30;;;;;;;;;;5445178;26;20382;-60
2024/04/18 05:57:06;;;;;;;6.47;3.83;;;;;;;;;;5421330;26;20035;-60
2024/04/18 05:59:51;;;;;;;5.25;3.28;;;;;;;;;;5414818;26;20712;-60
2024/04/18 06:02:18;;;;;;;5.28;3.25;;;;;;;;;;5415633;26;20039;-60
2024/04/18 06:04:44;;;;;;;7.50;4.10;;;;;;;;;;5413877;26;20047;-60
2024/04/18 06:07:32;;;;;;;5.43;3.90;;;;;;;;;;5414335;26;20410;-61
2024/04/18 06:09:58;;;;;;;6.70;4.32;;;;;;;;;;5416793;26;20031;-60
2024/04/18 06:12:24;;;;;;;8.85;4.40;;;;;;;;;;5383858;26;20028;-63
2024/04/18 06:14:50;;;;;;;12.27;4.65;;;;;;;;;;5417117;26;20030;-60
2024/04/18 06:17:17;;;;;;;6.75;4.03;;;;;;;;;;5417942;26;20043;-60
2024/04/18 06:19:50;;;;;;;7.25;4.03;;;;;;;;;;5417373;26;20042;-59
2024/04/18 06:22:31;;;;;;;6.70;4.10;;;;;;;;;;5422248;26;20668;-59
2024/04/18 06:25:19;;;;;;;7.72;3.92;;;;;;;;;;5412680;26;20039;-60
2024/04/18 06:27:45;;;;;;;7.93;4.22;;;;;;;;;;5415073;26;20038;-61
2024/04/18 06:30:11;;;;;;;6.82;3.88;;;;;;;;;;5418790;26;20035;-60
2024/04/18 06:32:38;;;;;;;9.02;4.00;;;;;;;;;;5421049;26;20028;-60
2024/04/18 06:35:04;;;;;;;6.25;3.97;;;;;;;;;;5415829;26;20032;-60
2024/04/18 06:37:31;;;;;;;5.25;3.67;;;;;;;;;;5418620;26;20035;-60
2024/04/18 06:39:57;;;;;;;6.75;3.75;;;;;;;;;;5417211;26;20409;-60
2024/04/18 06:42:23;;;;;;;7.65;3.80;;;;;;;;;;5418799;26;20031;-60
2024/04/18 06:44:49;;;;;;;6.63;3.92;;;;;;;;;;5420706;26;20034;-60
2024/04/18 06:47:15;;;;;;;5.78;3.65;;;;;;;;;;5381111;26;20028;-60
2024/04/18 06:50:02;;;;;;;5.90;4.00;;;;;;;;;;5408451;26;20036;-62
2024/04/18 06:52:29;;;;;;;6.30;3.47;;;;;;;;;;5421574;26;20043;-63
2024/04/18 06:54:55;;;;;;;6.03;3.42;;;;;;;;;;5417336;26;20032;-61
2024/04/18 06:57:51;;;;;;;7.50;4.03;;;;;;;;;;5390936;26;20010;-61
2024/04/18 07:00:17;;;;;;;6.00;3.95;;;;;;;;;;5433264;26;20070;-62
2024/04/18 07:02:44;;;;;;;9.68;4.68;;;;;;;;;;5412051;26;20043;-59
2024/04/18 07:05:39;;;;;;;8.98;4.60;;;;;;;;;;5368600;26;20043;-59
2024/04/18 07:08:21;;;;;;;14.65;6.90;;;;;;;;;;5420617;26;20023;-59
2024/04/18 07:10:47;;;;;;;7.03;4.32;;;;;;;;;;5415909;26;20022;-59
2024/04/18 07:13:30;;;;;;;7.80;4.47;;;;;;;;;;5415833;26;20055;-59
2024/04/18 07:15:58;;;;;;;13.65;6.95;;;;;;;;;;5417471;26;20043;-59
2024/04/18 07:18:42;;;;;;;10.45;5.10;;;;;;;;;;5420019;26;20637;-59
2024/04/18 07:21:09;;;;;;;9.50;4.63;;;;;;;;;;5389688;26;20043;-60
2024/04/18 07:23:35;;;;;;;8.73;4.45;;;;;;;;;;5423843;26;20024;-61
2024/04/18 07:26:05;;;;;;;8.85;5.00;;;;;;;;;;5421263;26;20391;-60
2024/04/18 07:28:31;;;;;;;8.52;4.60;;;;;;;;;;5421064;26;20032;-60
2024/04/18 07:30:57;;;;;;;8.35;5.30;;;;;;;;;;5414688;26;20039;-60
2024/04/18 07:33:23;;;;;;;10.07;5.65;;;;;;;;;;5417071;26;20039;-60
2024/04/18 07:35:53;;;;;;;9.18;5.05;;;;;;;;;;5417003;26;20344;-60
2024/04/18 07:38:19;;;;;;;8.73;5.20;;;;;;;;;;5417332;26;20031;-60
2024/04/18 07:40:46;;;;;;;14.48;5.95;;;;;;;;;;5416953;26;20020;-60
2024/04/18 07:43:12;;;;;;;10.80;6.03;;;;;;;;;;5415736;26;20495;-60
2024/04/18 07:45:38;;;;;;;10.18;5.80;;;;;;;;;;5418791;26;20029;-60
2024/04/18 07:48:06;;;;;;;9.95;6.53;;;;;;;;;;5422629;26;20024;-60
2024/04/18 07:50:32;;;;;;;10.13;6.55;;;;;;;;;;5414656;26;20111;-62
2024/04/18 07:52:58;;;;;;;13.50;6.70;;;;;;;;;;5417738;26;20028;-60
2024/04/18 07:55:24;;;;;;;13.48;7.65;;;;;;;;;;5418802;26;20027;-60
2024/04/18 07:57:51;;;;;;;11.15;6.65;;;;;;;;;;5431152;26;20390;-60
2024/04/18 08:00:17;;;;;;;14.77;7.32;;;;;;;;;;5411926;26;20028;-60
2024/04/18 08:02:46;;;;;;;13.25;7.00;;;;;;;;;;5410304;26;21039;-61
2024/04/18 08:05:12;;;;;;;12.65;7.38;;;;;;;;;;5416497;26;20038;-61
2024/04/18 08:07:39;;;;;;;11.60;7.40;;;;;;;;;;5420109;26;20029;-60
2024/04/18 08:10:05;;;;;;;12.02;6.63;;;;;;;;;;5413596;26;20031;-60
2024/04/18 08:12:31;;;;;;;10.35;6.78;;;;;;;;;;5418009;26;20043;-60
2024/04/18 08:14:57;;;;;;;10.93;6.32;;;;;;;;;;5422468;26;20043;-60
2024/04/18 08:17:23;;;;;;;9.15;5.93;;;;;;;;;;5420561;26;20044;-61
2024/04/18 08:19:49;;;;;;;12.82;6.53;;;;;;;;;;5416940;26;20036;-60
2024/04/18 08:22:15;;;;;;;10.85;5.90;;;;;;;;;;5419697;26;20383;-60
2024/04/18 08:24:42;;;;;;;10.63;5.47;;;;;;;;;;5424314;26;20039;-61
2024/04/18 08:27:08;;;;;;;9.50;6.00;;;;;;;;;;5428738;26;20039;-60
2024/04/18 08:29:34;;;;;;;16.33;7.85;;;;;;;;;;5424026;26;20027;-60
2024/04/18 08:32:00;;;;;;;18.00;10.10;;;;;;;;;;5385344;26;20028;-60
2024/04/18 08:34:26;;;;;;;15.80;8.73;;;;;;;;;;5412344;26;20035;-60
2024/04/18 08:36:52;;;;;;;14.50;8.25;;;;;;;;;;5416729;26;20036;-60
2024/04/18 08:39:18;;;;;;;13.38;8.93;;;;;;;;;;5418918;26;20032;-60
2024/04/18 08:41:45;;;;;;;14.98;8.73;;;;;;;;;;5412168;26;20031;-61
2024/04/18 08:44:11;;;;;;;14.50;9.20;;;;;;;;;;5419703;26;20047;-60
2024/04/18 08:46:38;;;;;;;13.95;8.32;;;;;;;;;;5413571;26;20032;-60
2024/04/18 08:49:06;;;;;;;16.60;8.88;;;;;;;;;;5417456;26;20586;-61
2024/04/18 08:51:39;;;;;;;13.82;8.85;;;;;;;;;;5417228;26;20496;-60
2024/04/18 08:54:07;;;;;;;12.90;8.45;;;;;;;;;;5409703;26;19999;-60
2024/04/18 08:56:34;;;;;;;14.68;8.88;;;;;;;;;;5424785;26;20390;-61
2024/04/18 08:59:01;;;;;;;17.67;9.57;;;;;;;;;;5413265;26;20036;-60
2024/04/18 09:01:27;;;;;;;18.20;9.95;;;;;;;;;;5414026;26;20035;-60
2024/04/18 09:03:55;;;;;;;17.42;9.27;;;;;;;;;;5412820;26;20468;-60
2024/04/18 09:06:22;;;;;;;15.13;9.77;;;;;;;;;;5411870;26;20027;-60
2024/04/18 09:08:50;;;;;;;13.88;9.02;;;;;;;;;;5417866;26;20038;-60
2024/04/18 09:11:16;;;;;;;14.75;8.98;;;;;;;;;;5413657;26;20037;-60
2024/04/18 09:13:46;;;;;;;12.80;8.52;;;;;;;;;;5416999;26;20047;-61
2024/04/18 09:16:13;;;;;;;14.77;9.02;;;;;;;;;;5419200;26;20400;-60
2024/04/18 09:18:39;;;;;;;13.95;8.77;;;;;;;;;;5413399;26;20054;-61
2024/04/18 09:21:10;;;;;;;13.70;8.80;;;;;;;;;;5416395;26;20051;-61
2024/04/18 09:23:39;;;;;;;15.10;9.30;;;;;;;;;;5418139;26;20031;-61
2024/04/18 09:26:06;;;;;;;11.32;7.97;;;;;;;;;;5418590;26;20036;-60
2024/04/18 09:28:34;;;;;;;18.10;9.55;;;;;;;;;;5418891;26;20035;-60
2024/04/18 09:31:03;;;;;;;13.73;8.47;;;;;;;;;;5414788;26;20027;-61
2024/04/18 09:33:33;;;;;;;12.20;8.15;;;;;;;;;;5409306;26;20499;-61
2024/04/18 09:36:00;;;;;;;13.40;8.38;;;;;;;;;;5412783;26;20035;-62
2024/04/18 09:38:32;;;;;;;12.82;7.60;;;;;;;;;;5418860;26;20039;-60
2024/04/18 09:41:03;;;;;;;12.65;8.20;;;;;;;;;;5413703;26;20032;-61
2024/04/18 09:44:10;;;;;;;14.50;8.05;;;;;;;;;;5409125;26;20028;-60
2024/04/18 09:46:37;;;;;;;13.07;7.93;;;;;;;;;;5413029;26;20026;-61
2024/04/18 09:49:03;;;;;;;13.43;7.90;;;;;;;;;;5412782;26;20387;-60
2024/04/18 09:51:29;;;;;;;12.77;7.70;;;;;;;;;;5408305;26;20039;-61
2024/04/18 09:53:56;;;;;;;12.27;7.88;;;;;;;;;;5417102;26;20035;-60
2024/04/18 09:56:25;;;;;;;9.68;6.63;;;;;;;;;;5407323;26;20055;-60
2024/04/18 09:58:52;;;;;;;12.73;7.57;;;;;;;;;;5417157;26;20042;-61
2024/04/18 10:01:19;;;;;;;10.05;6.85;;;;;;;;;;5409832;26;20289;-61
2024/04/18 10:03:45;;;;;;;9.05;6.35;;;;;;;;;;5410809;26;20119;-61
2024/04/18 10:06:14;;;;;;;8.70;6.40;;;;;;;;;;5417055;26;20036;-60
2024/04/18 10:08:47;;;;;;;10.32;6.50;;;;;;;;;;5411421;26;20380;-60
2024/04/18 10:11:13;;;;;;;13.07;7.53;;;;;;;;;;5415361;26;20042;-60
2024/04/18 10:13:41;;;;;;;10.93;6.95;;;;;;;;;;5418747;26;20031;-60
2024/04/18 10:16:11;;;;;;;11.00;6.78;;;;;;;;;;5416128;26;20035;-62
2024/04/18 10:18:38;;;;;;;9.05;6.50;;;;;;;;;;5420295;26;20055;-60
2024/04/18 10:21:11;;;;;;;11.00;6.47;;;;;;;;;;5400203;26;20039;-60
2024/04/18 10:23:46;;;;;;;11.88;6.88;;;;;;;;;;5410315;26;20023;-62
2024/04/18 10:26:16;;;;;;;8.25;5.53;;;;;;;;;;5419155;26;20031;-60
2024/04/18 10:28:43;;;;;;;9.13;6.13;;;;;;;;;;5411476;26;20031;-60
2024/04/18 10:31:10;;;;;;;8.48;5.90;;;;;;;;;;5415321;26;20025;-60
2024/04/18 10:33:38;;;;;;;6.68;5.38;;;;;;;;;;5412442;26;20036;-60
2024/04/18 10:36:11;;;;;;;9.13;5.65;;;;;;;;;;5410182;26;20032;-60
2024/04/18 10:38:45;;;;;;;9.63;6.35;;;;;;;;;;5408173;26;20047;-60
2024/04/18 10:41:15;;;;;;;8.68;6.45;;;;;;;;;;5418044;26;20378;-60
2024/04/18 10:43:42;;;;;;;7.97;5.63;;;;;;;;;;5406292;26;20035;-60
2024/04/18 10:46:13;;;;;;;6.80;4.80;;;;;;;;;;5412231;26;20425;-60
2024/04/18 10:48:41;;;;;;;7.60;4.50;;;;;;;;;;5411798;26;20040;-61
2024/04/18 10:51:07;;;;;;;5.38;3.90;;;;;;;;;;5415920;26;20043;-61
2024/04/18 10:53:35;;;;;;;5.15;4.00;;;;;;;;;;5414229;26;20467;-59
2024/04/18 10:56:01;;;;;;;6.78;4.22;;;;;;;;;;5396303;26;20031;-60
2024/04/18 10:58:27;;;;;;;5.82;4.03;;;;;;;;;;5424655;26;20042;-60
2024/04/18 11:01:00;;;;;;;7.20;5.00;;;;;;;;;;5420999;26;20034;-61
2024/04/18 11:03:27;;;;;;;8.32;5.18;;;;;;;;;;5413489;26;20040;-60
2024/04/18 11:05:58;;;;;;;14.68;7.10;;;;;;;;;;5428504;26;20031;-60
2024/04/18 11:08:25;;;;;;;8.38;5.95;;;;;;;;;;5408249;26;20031;-60
2024/04/18 11:10:51;;;;;;;7.35;5.55;;;;;;;;;;5418176;26;20027;-60
2024/04/18 11:13:19;;;;;;;7.15;4.97;;;;;;;;;;5417067;26;20036;-61
2024/04/18 11:15:46;;;;;;;5.20;4.30;;;;;;;;;;5421777;26;20030;-60
2024/04/18 11:18:12;;;;;;;7.18;4.30;;;;;;;;;;5418932;26;20415;-60
2024/04/18 11:20:40;;;;;;;9.02;4.35;;;;;;;;;;5423735;26;20035;-60
2024/04/18 11:23:08;;;;;;;7.38;5.00;;;;;;;;;;5414487;26;20511;-60
2024/04/18 11:25:37;;;;;;;7.55;4.50;;;;;;;;;;5422965;26;20039;-59
2024/04/18 11:28:07;;;;;;;6.38;5.05;;;;;;;;;;5412307;26;20048;-60
2024/04/18 11:30:38;;;;;;;7.00;4.78;;;;;;;;;;5421707;26;20031;-59
2024/04/18 11:33:04;;;;;;;6.70;5.28;;;;;;;;;;5411197;26;20027;-62
2024/04/18 11:35:31;;;;;;;9.38;5.38;;;;;;;;;;5410321;26;20613;-61
2024/04/18 11:38:02;;;;;;;7.30;5.03;;;;;;;;;;5416072;26;20040;-60
2024/04/18 11:40:30;;;;;;;10.98;5.70;;;;;;;;;;5418012;26;20043;-60
2024/04/18 11:42:56;;;;;;;8.98;5.88;;;;;;;;;;5412155;26;20035;-61
2024/04/18 11:45:22;;;;;;;7.15;4.72;;;;;;;;;;5409959;26;20515;-60
2024/04/18 11:47:56;;;;;;;8.10;5.45;;;;;;;;;;5419746;26;20038;-60
2024/04/18 11:50:22;;;;;;;7.65;4.80;;;;;;;;;;5432868;21;20043;-63
2024/04/18 11:52:48;;;;;;;5.97;4.72;;;;;;;;;;5411188;26;20035;-63
2024/04/18 11:55:27;;;;;;;6.85;4.30;;;;;;;;;;5406760;26;20386;-63
2024/04/18 11:57:53;;;;;;;5.22;3.88;;;;;;;;;;5361832;26;20035;-63
2024/04/18 12:00:34;;;;;;;6.10;4.28;;;;;;;;;;5381285;26;20044;-62
2024/04/18 12:03:06;;;;;;;5.03;4.05;;;;;;;;;;5388430;26;20049;-63
2024/04/18 12:05:37;;;;;;;5.30;4.20;;;;;;;;;;5404164;26;20036;-63
2024/04/18 12:08:05;;;;;;;6.43;3.97;;;;;;;;;;5390167;26;20499;-63
2024/04/18 12:10:31;;;;;;;8.15;4.90;;;;;;;;;;5376579;26;20003;-63
2024/04/18 12:13:04;;;;;;;7.78;4.10;;;;;;;;;;5396353;26;20386;-63
2024/04/18 12:15:33;;;;;;;5.30;3.53;;;;;;;;;;5400141;26;20055;-64
2024/04/18 12:17:59;;;;;;;5.03;3.60;;;;;;;;;;5377907;26;20395;-63
2024/04/18 12:20:26;;;;;;;4.72;3.35;;;;;;;;;;5406701;26;20020;-63
2024/04/18 12:22:52;;;;;;;6.00;4.18;;;;;;;;;;5377048;26;20052;-63
2024/04/18 12:25:18;;;;;;;4.00;2.88;;;;;;;;;;5411347;26;20043;-64
2024/04/18 12:27:46;;;;;;;5.18;3.45;;;;;;;;;;5402861;26;20445;-64
2024/04/18 12:30:31;;;;;;;4.53;2.97;;;;;;;;;;5377491;26;20031;-64
2024/04/18 12:33:16;;;;;;;5.22;3.65;;;;;;;;;;5403637;26;20027;-64
2024/04/18 12:35:42;;;;;;;5.57;3.92;;;;;;;;;;5401041;26;20028;-63
2024/04/18 12:38:08;;;;;;;4.07;3.35;;;;;;;;;;5406313;26;20043;-64
2024/04/18 12:40:42;;;;;;;4.55;3.78;;;;;;;;;;5408206;26;20503;-63
2024/04/18 12:43:14;;;;;;;6.95;3.83;;;;;;;;;;5404017;26;20043;-63
2024/04/18 12:45:57;;;;;;;6.03;4.22;;;;;;;;;;5376503;26;20033;-63
2024/04/18 12:48:42;;;;;;;4.85;3.92;;;;;;;;;;5405489;26;20036;-63
2024/04/18 12:51:08;;;;;;;6.15;4.10;;;;;;;;;;5399418;26;20036;-63
2024/04/18 12:53:41;;;;;;;7.13;4.40;;;;;;;;;;5406283;26;20394;-64
2024/04/18 12:56:07;;;;;;;6.68;4.68;;;;;;;;;;5399556;26;20036;-64
2024/04/18 12:58:33;;;;;;;5.20;4.00;;;;;;;;;;5381027;26;20035;-64
2024/04/18 13:01:07;;;;;;;7.75;4.15;;;;;;;;;;5358642;26;20028;-63
2024/04/18 13:03:38;;;;;;;5.70;4.53;;;;;;;;;;5387550;26;20044;-63
2024/04/18 13:06:25;;;;;;;3.72;2.83;;;;;;;;;;5407028;26;20039;-63
2024/04/18 13:08:51;;;;;;;3.70;3.20;;;;;;;;;;5402498;26;20695;-63
2024/04/18 13:11:38;;;;;;;3.40;2.85;;;;;;;;;;5376030;26;20035;-63
2024/04/18 13:14:04;;;;;;;3.70;3.08;;;;;;;;;;5407663;26;20039;-63
2024/04/18 13:16:34;;;;;;;4.78;3.30;;;;;;;;;;5408440;26;20035;-62
2024/04/18 13:19:10;;;;;;;3.97;3.03;;;;;;;;;;5370773;26;20036;-62
2024/04/18 13:21:39;;;;;;;4.53;3.45;;;;;;;;;;5395478;26;20063;-63
2024/04/18 13:24:10;;;;;;;3.07;2.53;;;;;;;;;;5402774;26;20039;-63
2024/04/18 13:26:51;;;;;;;4.22;2.90;;;;;;;;;;5393042;26;20041;-63
2024/04/18 13:29:18;;;;;;;3.05;2.58;;;;;;;;;;5362503;26;20387;-64
2024/04/18 13:31:47;;;;;;;3.05;2.33;;;;;;;;;;5390212;26;20036;-63
2024/04/18 13:34:20;;;;;;;4.07;2.33;;;;;;;;;;5397330;26;20031;-64
2024/04/18 13:36:46;;;;;;;2.65;1.80;;;;;;;;;;5404025;26;20031;-64
2024/04/18 13:39:13;;;;;;;2.40;1.75;;;;;;;;;;5410775;26;20045;-63
2024/04/18 13:41:42;;;;;;;3.42;2.03;;;;;;;;;;5369204;26;20032;-64
2024/04/18 13:44:17;;;;;;;2.28;2.08;;;;;;;;;;5403707;26;20452;-64
2024/04/18 13:46:43;;;;;;;2.60;1.60;;;;;;;;;;5404321;26;20035;-63
2024/04/18 13:49:11;;;;;;;2.13;1.60;;;;;;;;;;5411383;26;20031;-64
2024/04/18 13:51:52;;;;;;;3.78;1.80;;;;;;;;;;5378201;26;20047;-64
2024/04/18 13:54:34;;;;;;;1.80;1.52;;;;;;;;;;5401362;26;20042;-63
2024/04/18 13:57:04;;;;;;;2.22;1.75;;;;;;;;;;5356447;26;20028;-63
2024/04/18 13:59:40;;;;;;;2.60;2.03;;;;;;;;;;5375269;26;20027;-63
2024/04/18 14:02:27;;;;;;;2.40;1.80;;;;;;;;;;5409339;26;20040;-63
2024/04/18 14:05:19;;;;;;;1.73;1.63;;;;;;;;;;5393896;26;20504;-63
2024/04/18 14:08:05;;;;;;;2.08;1.80;;;;;;;;;;5407422;26;20031;-63
2024/04/18 14:10:32;;;;;;;3.15;2.00;;;;;;;;;;5408420;26;20035;-63
2024/04/18 14:13:20;;;;;;;2.20;2.00;;;;;;;;;;5375255;26;20024;-63
2024/04/18 14:18:53;;;;;;;3.30;2.30;;;;;;;;;;5375105;26;20767;-63
2024/04/18 14:21:36;;;;;;;3.75;2.72;;;;;;;;;;5402159;26;20044;-63
2024/04/18 14:24:03;;;;;;;3.30;2.20;;;;;;;;;;5407163;26;20036;-63
2024/04/18 14:26:29;;;;;;;2.63;2.00;;;;;;;;;;5375685;26;20028;-63
2024/04/18 14:28:55;;;;;;;2.20;2.00;;;;;;;;;;5404072;26;20043;-63
2024/04/18 14:31:23;;;;;;;3.00;2.22;;;;;;;;;;5405272;26;20062;-64
2024/04/18 14:33:49;;;;;;;2.35;2.10;;;;;;;;;;5373110;26;20379;-63
2024/04/18 14:36:15;;;;;;;3.17;2.63;;;;;;;;;;5404536;26;20046;-64
2024/04/18 14:38:41;;;;;;;3.03;2.53;;;;;;;;;;5407549;26;20048;-63
2024/04/18 14:41:07;;;;;;;3.13;2.30;;;;;;;;;;5404731;26;20494;-63
2024/04/18 14:43:33;;;;;;;5.20;3.10;;;;;;;;;;5372434;26;20017;-64
2024/04/18 14:46:00;;;;;;;4.43;2.90;;;;;;;;;;5407715;26;20396;-64
2024/04/18 14:48:44;;;;;;;2.97;2.45;;;;;;;;;;5378725;26;20055;-64
2024/04/18 14:51:21;;;;;;;3.28;2.10;;;;;;;;;;5380412;26;20035;-65
2024/04/18 14:53:48;;;;;;;2.13;1.50;;;;;;;;;;5380257;26;20032;-65
2024/04/18 14:56:15;;;;;;;1.92;1.50;;;;;;;;;;5399260;26;20031;-65
2024/04/18 14:59:01;;;;;;;1.60;1.40;;;;;;;;;;5391091;26;20039;-65
2024/04/18 15:01:27;;;;;;;4.18;1.58;;;;;;;;;;5365376;26;20017;-65
2024/04/18 15:03:53;;;;;;;3.13;1.50;;;;;;;;;;5372945;26;20409;-64
2024/04/18 15:06:19;;;;;;;1.88;1.40;;;;;;;;;;5406710;26;20028;-64
2024/04/18 15:09:06;;;;;;;2.53;1.52;;;;;;;;;;5369065;26;20036;-64